Terminal Aerodrome Forecast
Issued by NWS

Home | Current Version | Previous Version | Text Only | Print | Product List | Glossary On
Versions: 1 2 3 4 5 6 7 8 9 10 11 12 13 14 15 16 17 18 19 20 21 22 23 24
000
FTUS43 KDLH 181142
TAFHIB
TAF
KHIB 181142Z 1812/1912 00000KT 2SM BR BKN008 OVC150
      TEMPO 1812/1813 1/2SM FG VV002
     FM181300 VRB03KT 1SM BR BKN015 OVC150
     FM181400 31004KT P6SM BKN080 OVC150
     FM182100 32007KT P6SM VCTS BKN140CB
     FM182300 30004KT P6SM BKN060
     FM191100 00000KT 2SM BR FEW130=

USA.gov is the U.S. government's official web portal to all federal, state and local government web resources and services.